sensor_id;sensor_type;location;lat;lon;timestamp;pressure;altitude;pressure_sealevel;temperature;humidity
39083;BME280;24834;44.444;26.098;2024-03-02T00:02:03;100475.75;;;10.14;
39083;BME280;24834;44.444;26.098;2024-03-02T00:08:07;100462.63;;;10.14;
39083;BME280;24834;44.444;26.098;2024-03-02T00:14:11;100452.38;;;10.13;
39083;BME280;24834;44.444;26.098;2024-03-02T00:20:17;100453.91;;;10.19;
39083;BME280;24834;44.444;26.098;2024-03-02T00:26:22;100457.94;;;10.01;
39083;BME280;24834;44.444;26.098;2024-03-02T00:32:24;100448.19;;;10.07;
39083;BME280;24834;44.444;26.098;2024-03-02T00:38:29;100442.50;;;9.95;
39083;BME280;24834;44.444;26.098;2024-03-02T00:44:33;100438.81;;;9.96;
39083;BME280;24834;44.444;26.098;2024-03-02T00:50:37;100460.31;;;10.03;
39083;BME280;24834;44.444;26.098;2024-03-02T00:56:41;100455.31;;;10.06;
39083;BME280;24834;44.444;26.098;2024-03-02T01:02:43;100454.34;;;9.92;
39083;BME280;24834;44.444;26.098;2024-03-02T01:08:47;100440.97;;;9.83;
39083;BME280;24834;44.444;26.098;2024-03-02T01:14:54;100438.69;;;9.72;
39083;BME280;24834;44.444;26.098;2024-03-02T01:20:56;100438.44;;;9.68;
39083;BME280;24834;44.444;26.098;2024-03-02T01:26:58;100438.91;;;9.75;
39083;BME280;24834;44.444;26.098;2024-03-02T01:33:01;100442.13;;;9.67;
39083;BME280;24834;44.444;26.098;2024-03-02T01:39:04;100430.56;;;9.63;
39083;BME280;24834;44.444;26.098;2024-03-02T01:45:10;100426.22;;;9.44;
39083;BME280;24834;44.444;26.098;2024-03-02T01:51:13;100417.50;;;9.48;
39083;BME280;24834;44.444;26.098;2024-03-02T01:57:15;100411.75;;;9.41;
39083;BME280;24834;44.444;26.098;2024-03-02T02:03:18;100415.44;;;9.40;
39083;BME280;24834;44.444;26.098;2024-03-02T02:09:22;100408.16;;;9.22;
39083;BME280;24834;44.444;26.098;2024-03-02T02:15:28;100410.78;;;9.22;
39083;BME280;24834;44.444;26.098;2024-03-02T02:21:31;100405.03;;;9.10;
39083;BME280;24834;44.444;26.098;2024-03-02T02:27:33;100393.53;;;9.01;
39083;BME280;24834;44.444;26.098;2024-03-02T02:33:39;100369.41;;;8.94;
39083;BME280;24834;44.444;26.098;2024-03-02T02:39:41;100376.75;;;8.91;
39083;BME280;24834;44.444;26.098;2024-03-02T02:45:44;100386.69;;;8.89;
39083;BME280;24834;44.444;26.098;2024-03-02T02:51:46;100396.69;;;8.93;
39083;BME280;24834;44.444;26.098;2024-03-02T02:57:49;100412.44;;;8.87;
39083;BME280;24834;44.444;26.098;2024-03-02T03:03:52;100421.09;;;8.88;
39083;BME280;24834;44.444;26.098;2024-03-02T03:09:55;100418.69;;;8.91;
39083;BME280;24834;44.444;26.098;2024-03-02T03:15:58;100417.44;;;8.69;
39083;BME280;24834;44.444;26.098;2024-03-02T03:22:00;100405.63;;;8.56;
39083;BME280;24834;44.444;26.098;2024-03-02T03:28:02;100416.63;;;8.63;
39083;BME280;24834;44.444;26.098;2024-03-02T03:34:05;100398.81;;;8.45;
39083;BME280;24834;44.444;26.098;2024-03-02T03:40:07;100407.97;;;8.37;
39083;BME280;24834;44.444;26.098;2024-03-02T03:46:13;100412.69;;;8.40;
39083;BME280;24834;44.444;26.098;2024-03-02T03:52:15;100409.56;;;8.28;
39083;BME280;24834;44.444;26.098;2024-03-02T03:58:17;100412.41;;;8.27;
39083;BME280;24834;44.444;26.098;2024-03-02T04:04:23;100413.97;;;8.23;
39083;BME280;24834;44.444;26.098;2024-03-02T04:10:26;100395.09;;;8.06;
39083;BME280;24834;44.444;26.098;2024-03-02T04:16:28;100400.59;;;8.09;
39083;BME280;24834;44.444;26.098;2024-03-02T04:22:33;100397.69;;;8.01;
39083;BME280;24834;44.444;26.098;2024-03-02T04:28:35;100401.63;;;8.03;
39083;BME280;24834;44.444;26.098;2024-03-02T04:34:37;100409.75;;;8.07;
39083;BME280;24834;44.444;26.098;2024-03-02T04:40:39;100403.97;;;8.05;
39083;BME280;24834;44.444;26.098;2024-03-02T04:46:42;100396.66;;;8.07;
39083;BME280;24834;44.444;26.098;2024-03-02T04:52:45;100399.28;;;8.07;
39083;BME280;24834;44.444;26.098;2024-03-02T04:58:47;100400.31;;;8.11;
39083;BME280;24834;44.444;26.098;2024-03-02T05:04:49;100402.91;;;8.01;
39083;BME280;24834;44.444;26.098;2024-03-02T05:10:51;100403.97;;;8.05;
39083;BME280;24834;44.444;26.098;2024-03-02T05:16:54;100410.78;;;8.06;
